createdAt,value
2018-11-05T00:00:38.717Z,9.65
2018-11-05T00:05:34.013Z,9.80
2018-11-05T00:10:27.997Z,9.58
2018-11-05T00:15:21.285Z,10.32
2018-11-05T00:20:14.563Z,9.53
2018-11-05T00:25:10.871Z,9.30
2018-11-05T00:30:04.415Z,9.28
2018-11-05T00:34:57.759Z,8.85
2018-11-05T00:39:51.042Z,9.83
2018-11-05T00:44:44.304Z,9.80
2018-11-05T00:49:37.576Z,9.58
2018-11-05T00:54:30.799Z,10.32
2018-11-05T00:59:24.111Z,9.88
2018-11-05T01:04:17.406Z,11.48
2018-11-05T01:09:10.619Z,9.30
2018-11-05T01:14:04.404Z,9.73
2018-11-05T01:18:57.649Z,9.80
2018-11-05T01:23:50.981Z,10.45
2018-11-05T01:28:44.269Z,9.78
2018-11-05T01:33:38.375Z,10.63
2018-11-05T01:38:32.275Z,10.82
2018-11-05T01:43:26.170Z,10.32
2018-11-05T01:48:19.945Z,11.00
2018-11-05T01:53:13.216Z,10.05
2018-11-05T01:58:06.757Z,11.63
2018-11-05T02:03:00.020Z,10.20
2018-11-05T02:07:53.313Z,10.25
2018-11-05T02:12:46.629Z,10.38
2018-11-05T02:17:41.414Z,10.08
2018-11-05T02:22:34.945Z,10.70
2018-11-05T02:27:28.623Z,10.90
2018-11-05T02:32:21.862Z,11.03
2018-11-05T02:37:15.124Z,10.08
2018-11-05T02:42:08.401Z,10.05
2018-11-05T02:47:01.707Z,10.63
2018-11-05T02:51:55.747Z,10.72
2018-11-05T02:56:49.007Z,11.70
2018-11-05T03:01:42.287Z,12.05
2018-11-05T03:06:35.588Z,12.23
2018-11-05T03:11:28.843Z,11.57
2018-11-05T03:16:22.647Z,11.63
2018-11-05T03:21:15.872Z,11.45
2018-11-05T03:26:09.288Z,11.75
2018-11-05T03:31:02.539Z,12.73
2018-11-05T03:35:55.884Z,11.40
2018-11-05T03:40:49.168Z,11.63
2018-11-05T03:45:42.491Z,12.20
2018-11-05T03:50:35.744Z,11.83
2018-11-05T03:55:29.185Z,11.20
2018-11-05T04:00:22.395Z,10.40
2018-11-05T04:05:15.663Z,10.55
2018-11-05T04:10:10.413Z,10.70
2018-11-05T04:15:03.953Z,10.43
2018-11-05T04:19:57.252Z,10.28
2018-11-05T04:24:50.515Z,10.88
2018-11-05T04:29:43.828Z,11.18
2018-11-05T04:34:37.109Z,11.53
2018-11-05T04:39:30.343Z,11.53
2018-11-05T04:44:23.602Z,11.00
2018-11-05T04:49:16.893Z,10.55
2018-11-05T04:54:10.158Z,10.48
2018-11-05T04:59:03.599Z,10.23
2018-11-05T05:03:56.893Z,10.55
2018-11-05T05:08:50.154Z,11.15
2018-11-05T05:13:43.453Z,11.68
2018-11-05T05:18:36.841Z,11.90
2018-11-05T05:23:30.106Z,11.75
2018-11-05T05:28:24.033Z,12.15
2018-11-05T05:33:17.346Z,11.65
2018-11-05T05:38:10.679Z,11.85
2018-11-05T05:43:04.225Z,12.03
2018-11-05T05:47:57.989Z,12.10
2018-11-05T05:52:51.240Z,12.75
2018-11-05T05:57:45.123Z,13.83
2018-11-05T06:02:38.743Z,13.03
2018-11-05T06:07:32.153Z,13.00
2018-11-05T06:12:25.445Z,13.10
2018-11-05T06:17:18.714Z,13.78
2018-11-05T06:22:12.062Z,13.90
2018-11-05T06:27:05.445Z,13.83
2018-11-05T06:31:58.713Z,13.72
2018-11-05T06:36:51.985Z,14.38
2018-11-05T06:41:46.298Z,14.65
2018-11-05T06:46:39.545Z,14.23
2018-11-05T06:51:32.819Z,13.43
2018-11-05T06:56:26.062Z,14.35
2018-11-05T07:01:19.353Z,14.63
2018-11-05T07:06:12.662Z,14.73
2018-11-05T07:11:05.920Z,13.38
2018-11-05T07:15:59.174Z,14.23
2018-11-05T07:20:52.395Z,13.65
2018-11-05T07:25:45.824Z,13.53
2018-11-05T07:30:39.132Z,13.93
2018-11-05T07:35:32.411Z,14.38
2018-11-05T07:40:25.675Z,13.83
2018-11-05T07:45:20.262Z,13.88
2018-11-05T07:50:14.926Z,13.90
2018-11-05T07:55:11.288Z,14.03
2018-11-05T08:00:13.523Z,14.68
2018-11-05T08:05:07.049Z,13.48
2018-11-05T08:10:00.302Z,14.13
2018-11-05T08:14:53.689Z,14.00
2018-11-05T08:19:47.026Z,14.23
2018-11-05T08:24:40.291Z,13.85
2018-11-05T08:29:33.575Z,14.53
2018-11-05T08:34:26.941Z,14.95
2018-11-05T08:39:20.169Z,14.28
2018-11-05T08:44:13.514Z,15.00
2018-11-05T08:49:07.043Z,14.33
2018-11-05T08:54:00.593Z,15.28
2018-11-05T08:58:53.865Z,15.90
2018-11-05T09:03:49.137Z,14.28
2018-11-05T09:08:42.741Z,15.53
2018-11-05T09:13:36.043Z,14.55
2018-11-05T09:18:29.408Z,13.78
2018-11-05T09:23:22.892Z,15.40
2018-11-05T09:28:16.234Z,16.10
2018-11-05T09:33:09.529Z,15.60
2018-11-05T09:38:02.977Z,14.78
2018-11-05T09:42:56.482Z,14.83
2018-11-05T09:47:49.754Z,14.10
2018-11-05T09:52:43.185Z,15.98
2018-11-05T09:57:36.561Z,15.03
2018-11-05T10:02:35.558Z,15.78
2018-11-05T10:07:28.806Z,15.30
2018-11-05T10:12:22.264Z,15.13
2018-11-05T10:17:15.515Z,14.58
2018-11-05T10:22:08.851Z,14.40
2018-11-05T10:27:02.296Z,14.30
2018-11-05T10:31:55.568Z,15.03
2018-11-05T10:36:50.485Z,13.90
2018-11-05T10:41:43.822Z,14.65
2018-11-05T10:46:37.437Z,15.32
2018-11-05T10:51:30.815Z,14.65
2018-11-05T10:56:24.115Z,14.63
2018-11-05T11:01:22.064Z,15.05
2018-11-05T11:06:15.364Z,15.23
2018-11-05T11:11:08.835Z,15.03
2018-11-05T11:16:02.157Z,14.63
2018-11-05T11:20:55.377Z,15.25
2018-11-05T11:25:48.722Z,14.90
2018-11-05T11:30:42.148Z,14.63
2018-11-05T11:35:35.421Z,15.05
2018-11-05T11:40:28.772Z,15.72
2018-11-05T11:45:22.770Z,14.87
2018-11-05T11:50:16.784Z,15.50
2018-11-05T11:55:12.709Z,14.55
2018-11-05T12:00:11.791Z,14.93
2018-11-05T12:05:06.686Z,15.72
2018-11-05T12:09:59.922Z,14.63
2018-11-05T12:14:53.425Z,15.50
2018-11-05T12:19:46.631Z,14.28
2018-11-05T12:24:39.911Z,14.23
2018-11-05T12:29:33.270Z,15.10
2018-11-05T12:34:26.542Z,13.18
2018-11-05T12:39:19.783Z,14.18
2018-11-05T12:44:13.217Z,14.75
2018-11-05T12:49:06.535Z,14.78
2018-11-05T12:53:59.870Z,14.87
2018-11-05T12:58:53.282Z,14.50
2018-11-05T13:03:46.677Z,15.20
2018-11-05T13:08:39.915Z,13.38
2018-11-05T13:13:33.975Z,13.98
2018-11-05T13:18:27.310Z,13.15
2018-11-05T13:23:27.296Z,14.20
2018-11-05T13:28:20.629Z,13.32
2018-11-05T13:33:13.855Z,13.98
2018-11-05T13:38:07.648Z,12.90
2018-11-05T13:43:00.420Z,13.50
2018-11-05T13:47:54.817Z,12.63
2018-11-05T13:52:47.021Z,13.00
2018-11-05T13:57:41.071Z,13.10
2018-11-05T14:02:34.278Z,13.20
2018-11-05T14:07:34.673Z,13.08
2018-11-05T14:12:27.966Z,12.37
2018-11-05T14:17:21.258Z,12.00
2018-11-05T14:22:14.569Z,11.33
2018-11-05T14:27:07.885Z,12.25
2018-11-05T14:32:01.285Z,12.28
2018-11-05T14:36:54.633Z,12.60
2018-11-05T14:41:47.813Z,12.60
2018-11-05T14:46:41.174Z,12.70
2018-11-05T14:51:34.785Z,12.18
2018-11-05T14:56:28.053Z,11.35
2018-11-05T15:01:21.320Z,13.32
2018-11-05T15:06:14.633Z,11.67
2018-11-05T15:11:07.972Z,12.37
2018-11-05T15:16:01.280Z,11.78
2018-11-05T15:20:54.575Z,13.30
2018-11-05T15:25:47.908Z,13.20
2018-11-05T15:30:41.455Z,12.80
2018-11-05T15:35:34.764Z,12.68
2018-11-05T15:40:28.061Z,13.58
2018-11-05T15:45:21.919Z,13.38
2018-11-05T15:50:16.436Z,13.20
2018-11-05T15:55:10.050Z,13.50
2018-11-05T16:00:04.212Z,13.80
2018-11-05T16:04:57.460Z,14.80
2018-11-05T16:09:50.781Z,14.18
2018-11-05T16:14:44.205Z,31.30
2018-11-05T16:19:37.506Z,16.97
2018-11-05T16:24:30.876Z,22.32
2018-11-05T16:29:24.097Z,15.83
2018-11-05T16:34:17.365Z,16.23
2018-11-05T16:39:12.331Z,15.75
2018-11-05T16:44:06.726Z,16.30
2018-11-05T16:49:00.013Z,15.90
2018-11-05T16:53:54.827Z,16.02
2018-11-05T16:58:48.349Z,16.85
2018-11-05T17:03:41.917Z,17.80
2018-11-05T17:08:36.559Z,17.52
2018-11-05T17:13:29.914Z,18.57
2018-11-05T17:18:23.671Z,19.25
2018-11-05T17:23:17.029Z,16.57
2018-11-05T17:28:10.333Z,21.10
2018-11-05T17:33:03.614Z,20.25
2018-11-05T17:37:56.871Z,17.98
2018-11-05T17:42:50.175Z,17.37
2018-11-05T17:47:43.747Z,17.45
2018-11-05T17:52:37.103Z,17.98
2018-11-05T17:57:30.409Z,16.65
2018-11-05T18:02:24.832Z,17.60
2018-11-05T18:07:18.193Z,20.05
2018-11-05T18:12:11.569Z,17.98
2018-11-05T18:17:05.476Z,18.23
2018-11-05T18:21:58.845Z,17.85
2018-11-05T18:26:52.131Z,17.07
2018-11-05T18:31:45.420Z,17.57
2018-11-05T18:36:38.684Z,18.02
2018-11-05T18:41:31.930Z,18.30
2018-11-05T18:46:25.225Z,18.45
2018-11-05T18:51:18.515Z,18.10
2018-11-05T18:56:11.842Z,18.37
2018-11-05T19:01:05.148Z,18.40
2018-11-05T19:05:58.548Z,18.35
2018-11-05T19:10:52.003Z,17.60
2018-11-05T19:15:45.438Z,18.12
2018-11-05T19:20:38.781Z,26.12
2018-11-05T19:25:33.225Z,21.12
2018-11-05T19:30:27.411Z,24.12
2018-11-05T19:35:20.614Z,23.00
2018-11-05T19:40:14.753Z,21.77
2018-11-05T19:45:10.957Z,24.35
2018-11-05T19:50:06.108Z,22.80
2018-11-05T19:54:59.328Z,22.58
2018-11-05T19:59:52.633Z,22.15
2018-11-05T20:04:45.936Z,19.07
2018-11-05T20:09:39.256Z,18.77
2018-11-05T20:14:32.625Z,20.43
2018-11-05T20:19:25.993Z,19.70
2018-11-05T20:24:19.357Z,20.60
2018-11-05T20:29:12.645Z,19.40
2018-11-05T20:34:06.090Z,19.67
2018-11-05T20:38:59.245Z,20.17
2018-11-05T20:43:52.545Z,20.72
2018-11-05T20:48:45.795Z,20.72
2018-11-05T20:53:39.077Z,19.52
2018-11-05T20:58:32.345Z,20.02
2018-11-05T21:03:27.141Z,19.87
2018-11-05T21:08:20.513Z,20.57
2018-11-05T21:13:13.899Z,19.87
2018-11-05T21:18:07.295Z,18.70
2018-11-05T21:23:00.554Z,20.62
2018-11-05T21:27:53.822Z,20.25
2018-11-05T21:32:47.175Z,19.05
2018-11-05T21:37:40.735Z,18.70
2018-11-05T21:42:33.947Z,19.50
2018-11-05T21:47:27.300Z,20.77
2018-11-05T21:52:20.570Z,19.77
2018-11-05T21:57:13.823Z,20.35
2018-11-05T22:02:07.138Z,19.57
2018-11-05T22:07:00.424Z,20.37
2018-11-05T22:11:53.714Z,20.12
2018-11-05T22:16:46.972Z,21.00
2018-11-05T22:21:40.284Z,20.27
2018-11-05T22:26:33.550Z,20.00
2018-11-05T22:31:26.918Z,20.60
2018-11-05T22:36:20.275Z,19.77
2018-11-05T22:41:13.564Z,20.45
2018-11-05T22:46:06.911Z,20.60
2018-11-05T22:51:00.161Z,19.67
2018-11-05T22:55:53.435Z,19.87
2018-11-05T23:00:52.374Z,20.80
2018-11-05T23:05:45.767Z,19.62
2018-11-05T23:10:39.067Z,21.10
2018-11-05T23:15:33.499Z,20.52
2018-11-05T23:20:26.787Z,20.65
2018-11-05T23:25:20.079Z,20.57
2018-11-05T23:30:13.645Z,20.10
2018-11-05T23:35:07.835Z,21.62
2018-11-05T23:40:01.115Z,20.60
2018-11-05T23:44:54.393Z,20.15
2018-11-05T23:49:47.671Z,20.08
2018-11-05T23:54:40.944Z,19.30
2018-11-05T23:59:34.222Z,20.85
